Aeroporto :
LOGIN :

Iscrizione | Disclaimer

   EN    FR    IT 

 










Sommario :    VFR   VFR Marginale   IFR   IFR Intensivo   IFR Molto Intensivo
Visibilità : 
Base nubi : 
>= 8 km
>= 3000ft
5 / 8 km
1000 / 3000 ft
1500m / 5 km
500 / 1000 ft
800 / 1500m
200 / 500 ft
< 800m
< 200 ft
Simboli :   Temporali  Nebbia  Neve Forte  Precipitazioni Forti  Vento > 20 kt
SIGMETs :   Varie  Temporali  Ghiacco  Turbolenza  Onda orograficha  Ceneri Vulcaniche






- Altitudine del aeroporto : -13 ft
- Codice IATA : LEY


EHLE - Lelystad

ULTIMO METAR :
  • 291025Z AUTO 27018KT 240V300 9999 OVC037 06/03 Q1004 NOSIG

METARs OBSOLETI :
  • 290955Z AUTO 26014KT 240V300 9999 FEW020 SCT031 BKN036 05/04 Q1003 NOSIG
  • 290925Z AUTO 26016KT 240V310 9999 BKN017 OVC021 05/03 Q1003 NOSIG
  • 290855Z AUTO 27014KT 230V290 9999 FEW020 SCT026 BKN029 05/03 Q1002 TEMPO 7000 -SHRA FEW018CB
  • 290825Z AUTO 26014KT 9999 -RA SCT019 BKN023 BKN027 05/03 Q1002 RERA REDZ TEMPO 7000 -SHRA FEW018CB
  • 290755Z AUTO 26016KT 9999 +DZ FEW016 SCT020 BKN024 05/03 Q1002 TEMPO 7000 -SHRA FEW018CB
  • 290725Z AUTO 26014KT 9999 -UP FEW020 SCT023 BKN027 05/03 Q1001 NOSIG

TAF TAF EHLE
Valido dal 29 a 06 ore il 30 a 12 ore UTC


290516Z 2906/3012 26015KT 9999 SCT025
BECMG 2906/2909 27016G26KT
PROB40
TEMPO 2907/2915 7000 -SHRAGS FEW022CB BKN025
BECMG 2916/2919 24013KT
PROB30
TEMPO 3002/3009 BKN008
BECMG 3009/3012 20012KT



MetMap, La meteo Aeronautica in un colpo d'occhio ! - Copyright ORBIFLY Dicembre 2007 - Disclaimer

ORBIFLY MET'MAP TEAM :

Programmazione e sviluppo : Alexandra Zaïnal
Concezione : Baudouin d'Aumeries
Aiuto per la programmazione : Marc-Olivier Méhu
Supporto tecnico e logistico : Manuel Goepfert
Aiuto per la traduzione : Arnaldo La Scala

Contatto : metmap@orbifly.com




FONTI E CREDITI :

   NOAA